Terminal Aerodrome Forecast
Issued by NWS

Current Version | Previous Version | Graphics & Text | Print | Product List | Glossary On
Versions: 1 2 3 4 5 6 7 8 9 10 11 12 13 14 15 16 17
000
FTUS41 KILN 232349
TAFLUK
TAF
KLUK 232349Z 2400/2424 13004KT P6SM BKN120
     FM241000 13005KT P6SM BKN025
     FM241400 14005KT 6SM -SHRA OVC040
     FM241600 14005KT 4SM SHRA SCT025 OVC040
     FM242100 32005KT 6SM -SHRA OVC018
     FM242300 26005KT P6SM BKN018=

USA.gov is the U.S. government's official web portal to all federal, state and local government web resources and services.